HL1230 RKJB-RKJY
Flight info
| Callsign | HL1230 |
|---|---|
| Flight time | N/A |
| Altitude | 9000 |
| Route | KWA V543 TEDAN DCT |
| Aircraft | C172/L-SFG/L |
Departure
| Time | 2026-04-18 17:49 |
|---|---|
| Airport | Muan International Airport (RKJB) |
Arrival
| Time | N/A |
|---|---|
| Airport | Yeosu Airport (RKJY) |
| Time | Latitude | Longitude | Altitude | Speed | Heading |
|---|---|---|---|---|---|
| 2026-04-18 17:39 | 34.99501 | 126.38628 | 43 ft | 0 kts | 358° |
| 2026-04-18 17:41 | 34.99502 | 126.38628 | 43 ft | 0 kts | 358° |
| 2026-04-18 17:41 | 34.99520 | 126.38629 | 43 ft | 4 kts | 0° |
| 2026-04-18 17:42 | 34.99535 | 126.38592 | 44 ft | 6 kts | 266° |
| 2026-04-18 17:42 | 34.99496 | 126.38569 | 44 ft | 9 kts | 180° |
| 2026-04-18 17:42 | 34.99417 | 126.38570 | 44 ft | 13 kts | 184° |
| 2026-04-18 17:42 | 34.99305 | 126.38570 | 42 ft | 17 kts | 179° |
| 2026-04-18 17:43 | 34.99240 | 126.38524 | 42 ft | 10 kts | 266° |
| 2026-04-18 17:43 | 34.99192 | 126.38483 | 42 ft | 12 kts | 179° |
| 2026-04-18 17:43 | 34.99088 | 126.38482 | 40 ft | 15 kts | 180° |
| 2026-04-18 17:43 | 34.98964 | 126.38483 | 38 ft | 20 kts | 176° |
| 2026-04-18 17:44 | 34.98814 | 126.38483 | 35 ft | 21 kts | 180° |
| 2026-04-18 17:44 | 34.98665 | 126.38484 | 29 ft | 21 kts | 180° |
| 2026-04-18 17:44 | 34.98513 | 126.38485 | 26 ft | 21 kts | 178° |
| 2026-04-18 17:44 | 34.98360 | 126.38487 | 21 ft | 22 kts | 180° |
| 2026-04-18 17:45 | 34.98199 | 126.38487 | 14 ft | 23 kts | 180° |
| 2026-04-18 17:45 | 34.98036 | 126.38488 | 11 ft | 22 kts | 180° |
| 2026-04-18 17:45 | 34.97907 | 126.38480 | 8 ft | 13 kts | 215° |
| 2026-04-18 17:45 | 34.97890 | 126.38399 | 10 ft | 3 kts | 274° |
| 2026-04-18 17:46 | 34.97891 | 126.38394 | 10 ft | 0 kts | 270° |
| 2026-04-18 17:48 | 34.97891 | 126.38380 | 11 ft | 4 kts | 270° |
| 2026-04-18 17:48 | 34.97897 | 126.38323 | 13 ft | 9 kts | 299° |
| 2026-04-18 17:48 | 34.97976 | 126.38292 | 14 ft | 15 kts | 359° |
| 2026-04-18 17:48 | 34.98179 | 126.38290 | 21 ft | 52 kts | 357° |
| 2026-04-18 17:49 | 34.98627 | 126.38294 | 134 ft | 69 kts | 1° |
| 2026-04-18 17:49 | 34.99119 | 126.38280 | 317 ft | 73 kts | 358° |
| 2026-04-18 17:49 | 34.99631 | 126.38251 | 520 ft | 73 kts | 355° |
| 2026-04-18 17:49 | 35.00130 | 126.38195 | 716 ft | 73 kts | 358° |
| 2026-04-18 17:50 | 35.00626 | 126.38335 | 894 ft | 74 kts | 37° |
| 2026-04-18 17:50 | 35.00996 | 126.38747 | 1093 ft | 74 kts | 25° |
| 2026-04-18 17:50 | 35.01431 | 126.39043 | 1279 ft | 71 kts | 53° |
| 2026-04-18 17:50 | 35.01670 | 126.39558 | 1478 ft | 69 kts | 66° |
| 2026-04-18 17:51 | 35.01865 | 126.40093 | 1672 ft | 68 kts | 68° |
| 2026-04-18 17:51 | 35.02046 | 126.40618 | 1867 ft | 66 kts | 69° |
| 2026-04-18 17:51 | 35.02215 | 126.41131 | 2057 ft | 65 kts | 70° |
| 2026-04-18 17:51 | 35.02376 | 126.41630 | 2259 ft | 62 kts | 72° |
| 2026-04-18 17:52 | 35.02528 | 126.42116 | 2443 ft | 62 kts | 73° |
| 2026-04-18 17:52 | 35.02677 | 126.42609 | 2607 ft | 64 kts | 73° |
| 2026-04-18 17:52 | 35.02829 | 126.43134 | 2765 ft | 66 kts | 75° |
| 2026-04-18 17:52 | 35.02979 | 126.43666 | 2925 ft | 66 kts | 75° |
| 2026-04-18 17:53 | 35.03122 | 126.44177 | 3117 ft | 62 kts | 74° |
| 2026-04-18 17:53 | 35.03256 | 126.44656 | 3310 ft | 59 kts | 75° |
| 2026-04-18 17:53 | 35.03386 | 126.45110 | 3508 ft | 54 kts | 76° |
| 2026-04-18 17:53 | 35.03506 | 126.45530 | 3674 ft | 54 kts | 75° |
| 2026-04-18 17:54 | 35.03630 | 126.45977 | 3827 ft | 56 kts | 77° |
| 2026-04-18 17:54 | 35.03755 | 126.46442 | 3971 ft | 60 kts | 77° |
| 2026-04-18 17:54 | 35.03887 | 126.46945 | 4103 ft | 64 kts | 78° |
| 2026-04-18 17:54 | 35.04025 | 126.47488 | 4231 ft | 68 kts | 79° |
| 2026-04-18 17:55 | 35.04168 | 126.48055 | 4355 ft | 72 kts | 78° |
| 2026-04-18 17:55 | 35.04317 | 126.48653 | 4483 ft | 74 kts | 78° |
| 2026-04-18 17:55 | 35.04470 | 126.49259 | 4615 ft | 76 kts | 77° |
| 2026-04-18 17:55 | 35.04622 | 126.49860 | 4793 ft | 72 kts | 77° |
| 2026-04-18 17:56 | 35.04768 | 126.50429 | 4960 ft | 69 kts | 77° |
| 2026-04-18 17:56 | 35.04912 | 126.50983 | 5127 ft | 67 kts | 78° |
| 2026-04-18 17:56 | 35.05181 | 126.52005 | 5468 ft | 60 kts | 78° |
| 2026-04-18 17:57 | 35.05265 | 126.52325 | 5578 ft | 58 kts | 78° |